sensor_id;sensor_type;location;lat;lon;timestamp;P1;durP1;ratioP1;P2;durP2;ratioP2
34098;SDS011;20374;49.474;10.944;2023-07-31T00:02:16;4.20;;;3.90;;
34098;SDS011;20374;49.474;10.944;2023-07-31T00:04:42;4.47;;;4.13;;
34098;SDS011;20374;49.474;10.944;2023-07-31T00:07:08;4.53;;;4.22;;
34098;SDS011;20374;49.474;10.944;2023-07-31T00:09:34;3.88;;;3.50;;
34098;SDS011;20374;49.474;10.944;2023-07-31T00:12:00;4.95;;;4.25;;
34098;SDS011;20374;49.474;10.944;2023-07-31T00:14:26;4.65;;;3.85;;
34098;SDS011;20374;49.474;10.944;2023-07-31T00:16:52;3.90;;;3.60;;
34098;SDS011;20374;49.474;10.944;2023-07-31T00:19:18;3.92;;;3.70;;
34098;SDS011;20374;49.474;10.944;2023-07-31T00:21:44;4.50;;;4.10;;
34098;SDS011;20374;49.474;10.944;2023-07-31T00:24:10;4.23;;;3.83;;
34098;SDS011;20374;49.474;10.944;2023-07-31T00:26:36;3.85;;;3.60;;
34098;SDS011;20374;49.474;10.944;2023-07-31T00:29:01;4.35;;;3.92;;
34098;SDS011;20374;49.474;10.944;2023-07-31T00:31:27;4.57;;;4.17;;
34098;SDS011;20374;49.474;10.944;2023-07-31T00:33:54;3.67;;;3.40;;
34098;SDS011;20374;49.474;10.944;2023-07-31T00:36:20;4.88;;;4.07;;
34098;SDS011;20374;49.474;10.944;2023-07-31T00:38:46;4.97;;;3.40;;
34098;SDS011;20374;49.474;10.944;2023-07-31T00:41:11;3.67;;;3.45;;
34098;SDS011;20374;49.474;10.944;2023-07-31T00:43:37;4.30;;;4.00;;
34098;SDS011;20374;49.474;10.944;2023-07-31T00:46:03;3.97;;;3.60;;
34098;SDS011;20374;49.474;10.944;2023-07-31T00:48:29;3.50;;;3.30;;
34098;SDS011;20374;49.474;10.944;2023-07-31T00:50:55;3.20;;;2.90;;
34098;SDS011;20374;49.474;10.944;2023-07-31T00:53:22;4.03;;;3.63;;
34098;SDS011;20374;49.474;10.944;2023-07-31T00:55:50;4.40;;;4.10;;
34098;SDS011;20374;49.474;10.944;2023-07-31T00:58:17;4.88;;;3.42;;
34098;SDS011;20374;49.474;10.944;2023-07-31T01:00:43;3.95;;;3.65;;
34098;SDS011;20374;49.474;10.944;2023-07-31T01:03:09;4.00;;;3.70;;
34098;SDS011;20374;49.474;10.944;2023-07-31T01:11:34;4.15;;;3.70;;
34098;SDS011;20374;49.474;10.944;2023-07-31T01:14:11;3.97;;;3.67;;
34098;SDS011;20374;49.474;10.944;2023-07-31T01:16:37;3.53;;;3.33;;
34098;SDS011;20374;49.474;10.944;2023-07-31T01:19:04;3.65;;;3.45;;
34098;SDS011;20374;49.474;10.944;2023-07-31T01:22:11;4.47;;;3.00;;
34098;SDS011;20374;49.474;10.944;2023-07-31T01:27:11;3.47;;;3.17;;
34098;SDS011;20374;49.474;10.944;2023-07-31T01:32:15;4.00;;;3.70;;
34098;SDS011;20374;49.474;10.944;2023-07-31T01:34:43;3.80;;;3.50;;
34098;SDS011;20374;49.474;10.944;2023-07-31T01:37:10;4.63;;;4.22;;
34098;SDS011;20374;49.474;10.944;2023-07-31T01:39:36;4.00;;;3.60;;
34098;SDS011;20374;49.474;10.944;2023-07-31T01:42:02;4.40;;;4.10;;
34098;SDS011;20374;49.474;10.944;2023-07-31T01:44:28;3.92;;;3.63;;
34098;SDS011;20374;49.474;10.944;2023-07-31T01:46:54;4.10;;;3.80;;
34098;SDS011;20374;49.474;10.944;2023-07-31T01:49:20;4.35;;;4.05;;
34098;SDS011;20374;49.474;10.944;2023-07-31T01:51:46;4.07;;;3.63;;
34098;SDS011;20374;49.474;10.944;2023-07-31T01:54:12;4.15;;;3.40;;
34098;SDS011;20374;49.474;10.944;2023-07-31T01:56:38;3.75;;;3.55;;
34098;SDS011;20374;49.474;10.944;2023-07-31T01:59:04;4.40;;;3.63;;
34098;SDS011;20374;49.474;10.944;2023-07-31T02:01:30;4.13;;;3.80;;
34098;SDS011;20374;49.474;10.944;2023-07-31T02:03:56;3.80;;;3.50;;
34098;SDS011;20374;49.474;10.944;2023-07-31T02:06:22;4.07;;;3.78;;
34098;SDS011;20374;49.474;10.944;2023-07-31T02:08:48;3.60;;;3.30;;
34098;SDS011;20374;49.474;10.944;2023-07-31T02:11:14;4.20;;;3.80;;
34098;SDS011;20374;49.474;10.944;2023-07-31T02:13:40;4.00;;;3.70;;
34098;SDS011;20374;49.474;10.944;2023-07-31T02:16:06;3.63;;;3.38;;
34098;SDS011;20374;49.474;10.944;2023-07-31T02:18:32;3.42;;;3.22;;
34098;SDS011;20374;49.474;10.944;2023-07-31T02:20:58;3.97;;;3.67;;
34098;SDS011;20374;49.474;10.944;2023-07-31T02:23:25;4.23;;;3.83;;
34098;SDS011;20374;49.474;10.944;2023-07-31T02:25:50;4.35;;;2.95;;
34098;SDS011;20374;49.474;10.944;2023-07-31T02:28:16;4.32;;;3.90;;
34098;SDS011;20374;49.474;10.944;2023-07-31T02:30:45;3.97;;;3.60;;
34098;SDS011;20374;49.474;10.944;2023-07-31T02:33:14;3.78;;;3.47;;
34098;SDS011;20374;49.474;10.944;2023-07-31T02:35:40;4.13;;;3.83;;
34098;SDS011;20374;49.474;10.944;2023-07-31T02:38:06;3.50;;;3.20;;
34098;SDS011;20374;49.474;10.944;2023-07-31T02:40:32;5.47;;;3.90;;
34098;SDS011;20374;49.474;10.944;2023-07-31T02:42:58;3.80;;;3.50;;
34098;SDS011;20374;49.474;10.944;2023-07-31T02:45:25;4.07;;;3.78;;
34098;SDS011;20374;49.474;10.944;2023-07-31T02:47:51;3.78;;;3.33;;
34098;SDS011;20374;49.474;10.944;2023-07-31T02:50:17;4.57;;;4.27;;
34098;SDS011;20374;49.474;10.944;2023-07-31T02:52:43;4.63;;;4.32;;
34098;SDS011;20374;49.474;10.944;2023-07-31T02:55:09;3.92;;;3.63;;
34098;SDS011;20374;49.474;10.944;2023-07-31T02:57:35;4.20;;;3.80;;
34098;SDS011;20374;49.474;10.944;2023-07-31T03:00:01;4.20;;;3.90;;
34098;SDS011;20374;49.474;10.944;2023-07-31T03:02:28;4.07;;;3.70;;
34098;SDS011;20374;49.474;10.944;2023-07-31T03:04:53;4.70;;;4.00;;
34098;SDS011;20374;49.474;10.944;2023-07-31T03:07:19;4.45;;;3.67;;
34098;SDS011;20374;49.474;10.944;2023-07-31T03:09:45;4.05;;;3.42;;
34098;SDS011;20374;49.474;10.944;2023-07-31T03:12:11;3.70;;;3.40;;
34098;SDS011;20374;49.474;10.944;2023-07-31T03:14:37;4.28;;;3.83;;
34098;SDS011;20374;49.474;10.944;2023-07-31T03:17:03;3.58;;;3.38;;
34098;SDS011;20374;49.474;10.944;2023-07-31T03:19:32;3.97;;;3.67;;
34098;SDS011;20374;49.474;10.944;2023-07-31T03:21:59;3.75;;;3.45;;
34098;SDS011;20374;49.474;10.944;2023-07-31T03:24:25;3.90;;;3.60;;
34098;SDS011;20374;49.474;10.944;2023-07-31T03:26:51;4.03;;;3.72;;
34098;SDS011;20374;49.474;10.944;2023-07-31T03:29:17;4.37;;;4.03;;
34098;SDS011;20374;49.474;10.944;2023-07-31T03:31:43;5.25;;;3.38;;
34098;SDS011;20374;49.474;10.944;2023-07-31T03:34:09;5.80;;;3.67;;
34098;SDS011;20374;49.474;10.944;2023-07-31T03:36:36;4.22;;;3.33;;
34098;SDS011;20374;49.474;10.944;2023-07-31T03:39:02;3.65;;;3.45;;
34098;SDS011;20374;49.474;10.944;2023-07-31T03:41:29;4.10;;;3.80;;
34098;SDS011;20374;49.474;10.944;2023-07-31T03:43:55;3.93;;;3.63;;
34098;SDS011;20374;49.474;10.944;2023-07-31T03:46:22;3.60;;;3.40;;
34098;SDS011;20374;49.474;10.944;2023-07-31T03:48:49;4.20;;;3.78;;
34098;SDS011;20374;49.474;10.944;2023-07-31T03:51:17;4.20;;;3.90;;
34098;SDS011;20374;49.474;10.944;2023-07-31T03:53:43;3.87;;;3.57;;
34098;SDS011;20374;49.474;10.944;2023-07-31T03:56:09;4.13;;;3.83;;
34098;SDS011;20374;49.474;10.944;2023-07-31T03:58:36;4.10;;;3.70;;
34098;SDS011;20374;49.474;10.944;2023-07-31T04:01:02;3.97;;;3.67;;
34098;SDS011;20374;49.474;10.944;2023-07-31T04:03:29;3.83;;;3.53;;
34098;SDS011;20374;49.474;10.944;2023-07-31T04:05:55;4.07;;;3.77;;
34098;SDS011;20374;49.474;10.944;2023-07-31T04:08:21;3.95;;;3.65;;
34098;SDS011;20374;49.474;10.944;2023-07-31T04:10:48;4.10;;;3.85;;
34098;SDS011;20374;49.474;10.944;2023-07-31T04:13:14;4.40;;;4.05;;
34098;SDS011;20374;49.474;10.944;2023-07-31T04:15:40;4.00;;;3.70;;
34098;SDS011;20374;49.474;10.944;2023-07-31T04:18:06;5.13;;;3.37;;
34098;SDS011;20374;49.474;10.944;2023-07-31T04:20:32;3.45;;;3.20;;
34098;SDS011;20374;49.474;10.944;2023-07-31T04:22:58;7.22;;;3.90;;
34098;SDS011;20374;49.474;10.944;2023-07-31T04:25:24;4.35;;;4.05;;
34098;SDS011;20374;49.474;10.944;2023-07-31T04:27:50;3.67;;;3.40;;
34098;SDS011;20374;49.474;10.944;2023-07-31T04:30:16;4.93;;;3.97;;
34098;SDS011;20374;49.474;10.944;2023-07-31T04:32:42;4.18;;;3.88;;
34098;SDS011;20374;49.474;10.944;2023-07-31T04:35:08;3.83;;;3.53;;
34098;SDS011;20374;49.474;10.944;2023-07-31T04:37:34;4.30;;;3.97;;
34098;SDS011;20374;49.474;10.944;2023-07-31T04:40:00;4.03;;;3.63;;
34098;SDS011;20374;49.474;10.944;2023-07-31T04:42:25;4.18;;;3.88;;
34098;SDS011;20374;49.474;10.944;2023-07-31T04:44:51;4.60;;;4.20;;
34098;SDS011;20374;49.474;10.944;2023-07-31T04:47:18;3.58;;;3.38;;
34098;SDS011;20374;49.474;10.944;2023-07-31T04:49:44;4.55;;;4.20;;
34098;SDS011;20374;49.474;10.944;2023-07-31T04:52:10;3.60;;;3.30;;
34098;SDS011;20374;49.474;10.944;2023-07-31T04:54:36;4.28;;;3.95;;
34098;SDS011;20374;49.474;10.944;2023-07-31T04:57:02;3.97;;;3.63;;
34098;SDS011;20374;49.474;10.944;2023-07-31T04:59:28;4.83;;;4.53;;
34098;SDS011;20374;49.474;10.944;2023-07-31T05:01:54;3.65;;;3.35;;
34098;SDS011;20374;49.474;10.944;2023-07-31T05:04:20;3.80;;;3.50;;
34098;SDS011;20374;49.474;10.944;2023-07-31T05:06:46;3.72;;;3.35;;
34098;SDS011;20374;49.474;10.944;2023-07-31T05:09:12;4.20;;;3.80;;
34098;SDS011;20374;49.474;10.944;2023-07-31T05:11:38;3.80;;;3.60;;
34098;SDS011;20374;49.474;10.944;2023-07-31T05:14:05;4.18;;;3.78;;
34098;SDS011;20374;49.474;10.944;2023-07-31T05:16:32;3.83;;;3.63;;
34098;SDS011;20374;49.474;10.944;2023-07-31T05:18:58;3.90;;;3.60;;
34098;SDS011;20374;49.474;10.944;2023-07-31T05:21:27;4.47;;;4.18;;
34098;SDS011;20374;49.474;10.944;2023-07-31T05:23:53;4.30;;;3.95;;
34098;SDS011;20374;49.474;10.944;2023-07-31T05:26:19;6.37;;;4.10;;
34098;SDS011;20374;49.474;10.944;2023-07-31T05:28:45;4.32;;;3.83;;
34098;SDS011;20374;49.474;10.944;2023-07-31T05:31:11;3.92;;;3.72;;
34098;SDS011;20374;49.474;10.944;2023-07-31T05:33:37;4.13;;;3.83;;
34098;SDS011;20374;49.474;10.944;2023-07-31T05:36:03;3.97;;;3.67;;
34098;SDS011;20374;49.474;10.944;2023-07-31T05:38:29;3.97;;;3.60;;
34098;SDS011;20374;49.474;10.944;2023-07-31T05:40:55;4.47;;;4.07;;
34098;SDS011;20374;49.474;10.944;2023-07-31T05:43:21;3.80;;;3.60;;
34098;SDS011;20374;49.474;10.944;2023-07-31T05:45:47;4.55;;;4.15;;
34098;SDS011;20374;49.474;10.944;2023-07-31T05:48:12;3.97;;;3.63;;
34098;SDS011;20374;49.474;10.944;2023-07-31T05:50:38;4.40;;;3.22;;
34098;SDS011;20374;49.474;10.944;2023-07-31T05:53:05;4.00;;;3.70;;
34098;SDS011;20374;49.474;10.944;2023-07-31T05:55:31;3.80;;;3.50;;
34098;SDS011;20374;49.474;10.944;2023-07-31T05:57:57;3.80;;;3.55;;
34098;SDS011;20374;49.474;10.944;2023-07-31T06:00:23;4.47;;;4.17;;
34098;SDS011;20374;49.474;10.944;2023-07-31T06:02:50;4.25;;;3.95;;
34098;SDS011;20374;49.474;10.944;2023-07-31T06:05:16;4.90;;;4.45;;
34098;SDS011;20374;49.474;10.944;2023-07-31T06:07:42;3.65;;;3.25;;
34098;SDS011;20374;49.474;10.944;2023-07-31T06:10:08;4.00;;;3.70;;
34098;SDS011;20374;49.474;10.944;2023-07-31T06:12:35;3.38;;;2.63;;
34098;SDS011;20374;49.474;10.944;2023-07-31T06:15:01;4.35;;;3.95;;
34098;SDS011;20374;49.474;10.944;2023-07-31T06:17:28;4.18;;;3.80;;
34098;SDS011;20374;49.474;10.944;2023-07-31T06:19:55;4.70;;;4.27;;
34098;SDS011;20374;49.474;10.944;2023-07-31T06:22:22;5.63;;;3.45;;
34098;SDS011;20374;49.474;10.944;2023-07-31T06:24:48;4.20;;;3.55;;
34098;SDS011;20374;49.474;10.944;2023-07-31T06:27:14;3.85;;;3.55;;
34098;SDS011;20374;49.474;10.944;2023-07-31T06:29:40;6.18;;;3.55;;
34098;SDS011;20374;49.474;10.944;2023-07-31T06:32:06;3.58;;;3.38;;
34098;SDS011;20374;49.474;10.944;2023-07-31T06:34:32;4.40;;;4.00;;
34098;SDS011;20374;49.474;10.944;2023-07-31T06:36:58;4.20;;;3.90;;
34098;SDS011;20374;49.474;10.944;2023-07-31T06:39:24;6.33;;;3.87;;
34098;SDS011;20374;49.474;10.944;2023-07-31T06:41:50;4.50;;;4.10;;
34098;SDS011;20374;49.474;10.944;2023-07-31T06:44:16;4.70;;;4.30;;
34098;SDS011;20374;49.474;10.944;2023-07-31T06:46:42;4.50;;;4.20;;
34098;SDS011;20374;49.474;10.944;2023-07-31T06:49:08;4.40;;;4.10;;
34098;SDS011;20374;49.474;10.944;2023-07-31T06:51:34;4.63;;;4.32;;
34098;SDS011;20374;49.474;10.944;2023-07-31T06:54:01;3.63;;;3.42;;
34098;SDS011;20374;49.474;10.944;2023-07-31T06:56:26;4.60;;;4.30;;
34098;SDS011;20374;49.474;10.944;2023-07-31T06:58:52;4.35;;;3.95;;
34098;SDS011;20374;49.474;10.944;2023-07-31T07:01:18;4.10;;;3.80;;
34098;SDS011;20374;49.474;10.944;2023-07-31T07:03:44;3.85;;;3.45;;
34098;SDS011;20374;49.474;10.944;2023-07-31T07:06:10;4.75;;;4.35;;
34098;SDS011;20374;49.474;10.944;2023-07-31T07:08:36;4.80;;;3.67;;
34098;SDS011;20374;49.474;10.944;2023-07-31T07:11:02;4.68;;;4.28;;
34098;SDS011;20374;49.474;10.944;2023-07-31T07:13:28;4.88;;;4.47;;
34098;SDS011;20374;49.474;10.944;2023-07-31T07:15:53;4.97;;;4.50;;
34098;SDS011;20374;49.474;10.944;2023-07-31T07:18:19;4.15;;;3.75;;
34098;SDS011;20374;49.474;10.944;2023-07-31T07:20:49;4.13;;;3.83;;
34098;SDS011;20374;49.474;10.944;2023-07-31T07:23:16;4.37;;;4.07;;
34098;SDS011;20374;49.474;10.944;2023-07-31T07:25:45;5.13;;;3.75;;
34098;SDS011;20374;49.474;10.944;2023-07-31T07:28:12;7.68;;;4.10;;
34098;SDS011;20374;49.474;10.944;2023-07-31T07:30:38;4.15;;;3.75;;
34098;SDS011;20374;49.474;10.944;2023-07-31T07:33:05;4.03;;;3.72;;
34098;SDS011;20374;49.474;10.944;2023-07-31T07:35:34;4.80;;;4.40;;
34098;SDS011;20374;49.474;10.944;2023-07-31T07:38:01;4.30;;;3.90;;
34098;SDS011;20374;49.474;10.944;2023-07-31T07:40:27;4.20;;;3.90;;
34098;SDS011;20374;49.474;10.944;2023-07-31T07:42:53;5.05;;;4.28;;
34098;SDS011;20374;49.474;10.944;2023-07-31T07:45:19;4.30;;;4.00;;
34098;SDS011;20374;49.474;10.944;2023-07-31T07:47:45;5.65;;;4.68;;
34098;SDS011;20374;49.474;10.944;2023-07-31T07:50:11;4.20;;;3.90;;
34098;SDS011;20374;49.474;10.944;2023-07-31T07:52:37;5.20;;;4.70;;
34098;SDS011;20374;49.474;10.944;2023-07-31T07:55:03;5.07;;;4.63;;
34098;SDS011;20374;49.474;10.944;2023-07-31T07:57:29;4.85;;;4.38;;
34098;SDS011;20374;49.474;10.944;2023-07-31T07:59:55;4.47;;;4.17;;
34098;SDS011;20374;49.474;10.944;2023-07-31T08:02:21;5.10;;;4.70;;
34098;SDS011;20374;49.474;10.944;2023-07-31T08:04:47;4.40;;;4.10;;
34098;SDS011;20374;49.474;10.944;2023-07-31T08:07:13;4.57;;;4.28;;
34098;SDS011;20374;49.474;10.944;2023-07-31T08:09:39;4.50;;;4.20;;
34098;SDS011;20374;49.474;10.944;2023-07-31T08:12:06;4.32;;;3.92;;
34098;SDS011;20374;49.474;10.944;2023-07-31T08:14:32;4.35;;;4.05;;
34098;SDS011;20374;49.474;10.944;2023-07-31T08:16:58;4.53;;;4.20;;
34098;SDS011;20374;49.474;10.944;2023-07-31T08:19:24;5.53;;;4.60;;
34098;SDS011;20374;49.474;10.944;2023-07-31T08:21:50;4.60;;;4.20;;
34098;SDS011;20374;49.474;10.944;2023-07-31T08:24:16;4.72;;;4.32;;
34098;SDS011;20374;49.474;10.944;2023-07-31T08:26:42;4.43;;;4.03;;
34098;SDS011;20374;49.474;10.944;2023-07-31T08:29:08;4.50;;;4.20;;
34098;SDS011;20374;49.474;10.944;2023-07-31T08:31:34;4.65;;;4.35;;
34098;SDS011;20374;49.474;10.944;2023-07-31T08:34:00;4.43;;;4.13;;
34098;SDS011;20374;49.474;10.944;2023-07-31T08:36:26;4.87;;;4.47;;
34098;SDS011;20374;49.474;10.944;2023-07-31T08:38:52;4.63;;;4.32;;
34098;SDS011;20374;49.474;10.944;2023-07-31T08:41:18;5.32;;;4.82;;
34098;SDS011;20374;49.474;10.944;2023-07-31T08:43:47;4.57;;;4.25;;
34098;SDS011;20374;49.474;10.944;2023-07-31T08:46:15;4.30;;;4.00;;
34098;SDS011;20374;49.474;10.944;2023-07-31T08:48:44;4.78;;;4.35;;
34098;SDS011;20374;49.474;10.944;2023-07-31T08:51:13;4.75;;;4.45;;
34098;SDS011;20374;49.474;10.944;2023-07-31T08:53:39;4.63;;;4.20;;
34098;SDS011;20374;49.474;10.944;2023-07-31T08:56:05;5.20;;;4.90;;
34098;SDS011;20374;49.474;10.944;2023-07-31T08:58:32;4.55;;;4.15;;
34098;SDS011;20374;49.474;10.944;2023-07-31T09:01:03;6.93;;;5.97;;
34098;SDS011;20374;49.474;10.944;2023-07-31T09:03:32;4.50;;;4.20;;
34098;SDS011;20374;49.474;10.944;2023-07-31T09:06:00;4.10;;;3.80;;
34098;SDS011;20374;49.474;10.944;2023-07-31T09:08:30;4.93;;;4.60;;
34098;SDS011;20374;49.474;10.944;2023-07-31T09:11:00;4.85;;;4.30;;
34098;SDS011;20374;49.474;10.944;2023-07-31T09:13:30;4.22;;;3.83;;
34098;SDS011;20374;49.474;10.944;2023-07-31T09:15:58;5.30;;;4.90;;
34098;SDS011;20374;49.474;10.944;2023-07-31T09:18:24;4.32;;;4.03;;
34098;SDS011;20374;49.474;10.944;2023-07-31T09:21:03;6.40;;;4.83;;
34098;SDS011;20374;49.474;10.944;2023-07-31T09:23:40;5.13;;;4.82;;
34098;SDS011;20374;49.474;10.944;2023-07-31T09:26:10;5.60;;;5.18;;
34098;SDS011;20374;49.474;10.944;2023-07-31T09:28:39;5.32;;;4.60;;
34098;SDS011;20374;49.474;10.944;2023-07-31T09:31:05;4.80;;;4.40;;
34098;SDS011;20374;49.474;10.944;2023-07-31T09:33:31;5.07;;;4.73;;
34098;SDS011;20374;49.474;10.944;2023-07-31T09:35:58;5.25;;;4.82;;
34098;SDS011;20374;49.474;10.944;2023-07-31T09:38:25;6.05;;;5.65;;
34098;SDS011;20374;49.474;10.944;2023-07-31T09:40:51;6.28;;;5.65;;
34098;SDS011;20374;49.474;10.944;2023-07-31T09:43:18;5.10;;;4.70;;
34098;SDS011;20374;49.474;10.944;2023-07-31T09:45:45;5.10;;;4.70;;
34098;SDS011;20374;49.474;10.944;2023-07-31T09:48:13;4.75;;;4.45;;
34098;SDS011;20374;49.474;10.944;2023-07-31T09:50:43;5.22;;;4.88;;
34098;SDS011;20374;49.474;10.944;2023-07-31T09:53:10;5.03;;;3.97;;
34098;SDS011;20374;49.474;10.944;2023-07-31T09:55:37;4.95;;;4.55;;
34098;SDS011;20374;49.474;10.944;2023-07-31T09:58:06;4.63;;;4.10;;
34098;SDS011;20374;49.474;10.944;2023-07-31T10:00:34;4.78;;;4.47;;
34098;SDS011;20374;49.474;10.944;2023-07-31T10:03:10;4.78;;;4.38;;
34098;SDS011;20374;49.474;10.944;2023-07-31T10:05:38;4.90;;;4.35;;
34098;SDS011;20374;49.474;10.944;2023-07-31T10:08:08;4.90;;;4.50;;
34098;SDS011;20374;49.474;10.944;2023-07-31T10:10:39;4.90;;;4.50;;
34098;SDS011;20374;49.474;10.944;2023-07-31T10:13:07;4.93;;;4.55;;
34098;SDS011;20374;49.474;10.944;2023-07-31T10:15:34;5.10;;;4.70;;
34098;SDS011;20374;49.474;10.944;2023-07-31T10:18:01;5.45;;;4.97;;
34098;SDS011;20374;49.474;10.944;2023-07-31T10:20:27;4.38;;;3.97;;
34098;SDS011;20374;49.474;10.944;2023-07-31T10:22:55;4.37;;;4.07;;
34098;SDS011;20374;49.474;10.944;2023-07-31T10:25:22;5.57;;;5.07;;
34098;SDS011;20374;49.474;10.944;2023-07-31T10:27:48;5.07;;;4.63;;
34098;SDS011;20374;49.474;10.944;2023-07-31T10:30:15;5.05;;;4.68;;
34098;SDS011;20374;49.474;10.944;2023-07-31T10:32:43;5.63;;;5.23;;
34098;SDS011;20374;49.474;10.944;2023-07-31T10:35:10;4.75;;;4.43;;
34098;SDS011;20374;49.474;10.944;2023-07-31T10:37:41;5.10;;;4.80;;
34098;SDS011;20374;49.474;10.944;2023-07-31T10:42:51;4.30;;;3.90;;
34098;SDS011;20374;49.474;10.944;2023-07-31T10:45:38;6.37;;;5.97;;
34098;SDS011;20374;49.474;10.944;2023-07-31T10:48:14;5.70;;;5.20;;
34098;SDS011;20374;49.474;10.944;2023-07-31T10:50:48;5.78;;;5.38;;
34098;SDS011;20374;49.474;10.944;2023-07-31T10:56:02;5.40;;;4.97;;
34098;SDS011;20374;49.474;10.944;2023-07-31T10:58:29;5.50;;;5.13;;
34098;SDS011;20374;49.474;10.944;2023-07-31T11:01:06;5.47;;;5.07;;
34098;SDS011;20374;49.474;10.944;2023-07-31T11:03:47;5.10;;;4.72;;
34098;SDS011;20374;49.474;10.944;2023-07-31T11:06:14;5.28;;;4.88;;
34098;SDS011;20374;49.474;10.944;2023-07-31T11:08:44;5.20;;;4.80;;
34098;SDS011;20374;49.474;10.944;2023-07-31T11:11:12;4.63;;;4.33;;
34098;SDS011;20374;49.474;10.944;2023-07-31T11:16:15;5.07;;;4.70;;
34098;SDS011;20374;49.474;10.944;2023-07-31T11:18:43;4.88;;;4.47;;
34098;SDS011;20374;49.474;10.944;2023-07-31T11:21:14;4.97;;;4.50;;
34098;SDS011;20374;49.474;10.944;2023-07-31T11:23:41;5.07;;;4.67;;
34098;SDS011;20374;49.474;10.944;2023-07-31T11:26:11;5.57;;;5.13;;
34098;SDS011;20374;49.474;10.944;2023-07-31T11:28:37;4.78;;;4.47;;
34098;SDS011;20374;49.474;10.944;2023-07-31T11:31:03;4.90;;;4.50;;
34098;SDS011;20374;49.474;10.944;2023-07-31T11:33:30;4.63;;;4.22;;
34098;SDS011;20374;49.474;10.944;2023-07-31T11:35:56;4.97;;;4.57;;
34098;SDS011;20374;49.474;10.944;2023-07-31T11:38:23;5.03;;;4.68;;
34098;SDS011;20374;49.474;10.944;2023-07-31T11:40:56;4.60;;;4.30;;
34098;SDS011;20374;49.474;10.944;2023-07-31T11:43:24;5.22;;;4.82;;
34098;SDS011;20374;49.474;10.944;2023-07-31T11:45:52;5.00;;;4.60;;
34098;SDS011;20374;49.474;10.944;2023-07-31T11:48:26;4.40;;;4.10;;
34098;SDS011;20374;49.474;10.944;2023-07-31T11:50:59;5.28;;;4.88;;
34098;SDS011;20374;49.474;10.944;2023-07-31T11:55:58;4.82;;;4.53;;
34098;SDS011;20374;49.474;10.944;2023-07-31T11:58:25;4.45;;;4.15;;
34098;SDS011;20374;49.474;10.944;2023-07-31T12:00:52;4.87;;;4.47;;
34098;SDS011;20374;49.474;10.944;2023-07-31T12:03:19;4.85;;;4.45;;
34098;SDS011;20374;49.474;10.944;2023-07-31T12:05:46;4.97;;;4.60;;
34098;SDS011;20374;49.474;10.944;2023-07-31T12:08:13;4.65;;;4.25;;
34098;SDS011;20374;49.474;10.944;2023-07-31T12:10:40;4.75;;;4.45;;
34098;SDS011;20374;49.474;10.944;2023-07-31T12:13:08;5.00;;;4.60;;
34098;SDS011;20374;49.474;10.944;2023-07-31T12:15:39;4.38;;;4.07;;
34098;SDS011;20374;49.474;10.944;2023-07-31T12:20:39;4.88;;;4.50;;
34098;SDS011;20374;49.474;10.944;2023-07-31T12:23:07;5.30;;;4.90;;
34098;SDS011;20374;49.474;10.944;2023-07-31T12:25:37;5.10;;;4.68;;
34098;SDS011;20374;49.474;10.944;2023-07-31T12:28:04;5.07;;;4.70;;
34098;SDS011;20374;49.474;10.944;2023-07-31T12:30:32;5.20;;;4.80;;
34098;SDS011;20374;49.474;10.944;2023-07-31T12:33:03;5.50;;;5.03;;
34098;SDS011;20374;49.474;10.944;2023-07-31T12:35:44;4.90;;;4.53;;
34098;SDS011;20374;49.474;10.944;2023-07-31T12:38:12;5.15;;;4.75;;
34098;SDS011;20374;49.474;10.944;2023-07-31T12:40:38;5.25;;;4.95;;
34098;SDS011;20374;49.474;10.944;2023-07-31T12:43:06;5.60;;;5.20;;
34098;SDS011;20374;49.474;10.944;2023-07-31T12:45:33;5.83;;;5.47;;
34098;SDS011;20374;49.474;10.944;2023-07-31T12:47:59;5.88;;;4.70;;
34098;SDS011;20374;49.474;10.944;2023-07-31T12:50:26;5.75;;;5.35;;
34098;SDS011;20374;49.474;10.944;2023-07-31T12:52:56;4.65;;;4.25;;
34098;SDS011;20374;49.474;10.944;2023-07-31T12:55:22;5.13;;;4.82;;
34098;SDS011;20374;49.474;10.944;2023-07-31T12:57:49;5.27;;;4.80;;
34098;SDS011;20374;49.474;10.944;2023-07-31T13:00:16;5.18;;;4.70;;
34098;SDS011;20374;49.474;10.944;2023-07-31T13:02:42;4.53;;;4.22;;
34098;SDS011;20374;49.474;10.944;2023-07-31T13:05:08;5.20;;;4.90;;
34098;SDS011;20374;49.474;10.944;2023-07-31T13:07:34;5.13;;;4.73;;
34098;SDS011;20374;49.474;10.944;2023-07-31T13:10:00;4.38;;;4.07;;
34098;SDS011;20374;49.474;10.944;2023-07-31T13:12:25;5.70;;;5.30;;
34098;SDS011;20374;49.474;10.944;2023-07-31T13:14:51;5.57;;;5.07;;
34098;SDS011;20374;49.474;10.944;2023-07-31T13:17:17;5.75;;;5.30;;
34098;SDS011;20374;49.474;10.944;2023-07-31T13:19:44;5.68;;;5.18;;
34098;SDS011;20374;49.474;10.944;2023-07-31T13:22:10;5.80;;;5.30;;
34098;SDS011;20374;49.474;10.944;2023-07-31T13:24:35;5.63;;;5.22;;
34098;SDS011;20374;49.474;10.944;2023-07-31T13:27:01;5.40;;;5.10;;
34098;SDS011;20374;49.474;10.944;2023-07-31T13:29:27;5.23;;;4.83;;
34098;SDS011;20374;49.474;10.944;2023-07-31T13:31:55;5.93;;;5.47;;
34098;SDS011;20374;49.474;10.944;2023-07-31T13:34:21;5.80;;;5.40;;
34098;SDS011;20374;49.474;10.944;2023-07-31T13:36:46;6.07;;;5.53;;
34098;SDS011;20374;49.474;10.944;2023-07-31T13:39:12;5.25;;;4.88;;
34098;SDS011;20374;49.474;10.944;2023-07-31T13:41:38;5.78;;;5.38;;
34098;SDS011;20374;49.474;10.944;2023-07-31T13:44:04;5.78;;;5.38;;
34098;SDS011;20374;49.474;10.944;2023-07-31T13:46:30;5.40;;;4.97;;
34098;SDS011;20374;49.474;10.944;2023-07-31T13:48:58;5.90;;;5.43;;
34098;SDS011;20374;49.474;10.944;2023-07-31T13:51:25;5.47;;;5.07;;
34098;SDS011;20374;49.474;10.944;2023-07-31T13:53:52;6.40;;;6.00;;
34098;SDS011;20374;49.474;10.944;2023-07-31T13:56:18;5.18;;;4.88;;
34098;SDS011;20374;49.474;10.944;2023-07-31T13:58:44;6.07;;;5.68;;
34098;SDS011;20374;49.474;10.944;2023-07-31T14:01:10;5.43;;;5.03;;
34098;SDS011;20374;49.474;10.944;2023-07-31T14:03:36;5.03;;;4.72;;
34098;SDS011;20374;49.474;10.944;2023-07-31T14:06:02;5.50;;;5.00;;
34098;SDS011;20374;49.474;10.944;2023-07-31T14:08:28;6.43;;;5.93;;
34098;SDS011;20374;49.474;10.944;2023-07-31T14:10:55;4.15;;;3.85;;
34098;SDS011;20374;49.474;10.944;2023-07-31T14:13:21;5.22;;;4.93;;
34098;SDS011;20374;49.474;10.944;2023-07-31T14:15:47;5.55;;;4.88;;
34098;SDS011;20374;49.474;10.944;2023-07-31T14:18:15;4.88;;;4.47;;
34098;SDS011;20374;49.474;10.944;2023-07-31T14:20:41;5.97;;;5.50;;
34098;SDS011;20374;49.474;10.944;2023-07-31T14:23:07;5.53;;;5.13;;
34098;SDS011;20374;49.474;10.944;2023-07-31T14:25:33;5.47;;;4.97;;
34098;SDS011;20374;49.474;10.944;2023-07-31T14:27:59;5.43;;;5.03;;
34098;SDS011;20374;49.474;10.944;2023-07-31T14:30:25;4.63;;;4.32;;
34098;SDS011;20374;49.474;10.944;2023-07-31T14:32:50;4.73;;;4.37;;
34098;SDS011;20374;49.474;10.944;2023-07-31T14:35:16;5.38;;;5.00;;
34098;SDS011;20374;49.474;10.944;2023-07-31T14:37:43;5.68;;;5.28;;
34098;SDS011;20374;49.474;10.944;2023-07-31T14:40:11;5.57;;;5.10;;
34098;SDS011;20374;49.474;10.944;2023-07-31T14:42:38;4.73;;;4.33;;
34098;SDS011;20374;49.474;10.944;2023-07-31T14:45:04;4.03;;;3.58;;
34098;SDS011;20374;49.474;10.944;2023-07-31T14:47:31;4.95;;;4.55;;
34098;SDS011;20374;49.474;10.944;2023-07-31T14:49:57;5.63;;;4.90;;
34098;SDS011;20374;49.474;10.944;2023-07-31T14:52:24;6.10;;;5.70;;
34098;SDS011;20374;49.474;10.944;2023-07-31T14:54:50;5.47;;;5.13;;
34098;SDS011;20374;49.474;10.944;2023-07-31T14:57:16;5.60;;;5.10;;